Mc Grath, Minnesota
Current Conditions -  °F | °C
As of 10:07 PM on Tuesday 25 Nov 2014 (Local Time) from KHZX Reporting Station
Overcast Overcast  
Wind Chill: 19°   Ceiling: 3000
Heat Index: 19°   Visibility: 10mi
Dew Point: 12°   Wind: 0mph
Humidity: 74%   Direction: NA
Pressure: 30.04"   Gusts: NA
Location:  46.3008°N, 93.2513°W
Report Text: KHZX 260407Z AUTO 00000KT 10SM OVC030 M07/M11 A3004 RMK AO2
Loading
Personal Weather Stations






























Interactive Weather Map New forecast layout! Learn more

10-Day Weather Forecast

Advertisements
Track Severe Weather on mobile